sensor_id;sensor_type;location;lat;lon;timestamp;P1;durP1;ratioP1;P2;durP2;ratioP2
11535;SDS011;5824;49.336;8.652;2023-06-10T00:01:26;8.87;;;7.40;;
11535;SDS011;5824;49.336;8.652;2023-06-10T00:03:52;10.87;;;7.30;;
11535;SDS011;5824;49.336;8.652;2023-06-10T00:06:19;10.67;;;7.40;;
11535;SDS011;5824;49.336;8.652;2023-06-10T00:08:46;7.27;;;6.57;;
11535;SDS011;5824;49.336;8.652;2023-06-10T00:11:12;10.93;;;7.50;;
11535;SDS011;5824;49.336;8.652;2023-06-10T00:13:38;9.00;;;7.53;;
11535;SDS011;5824;49.336;8.652;2023-06-10T00:16:04;8.80;;;7.20;;
11535;SDS011;5824;49.336;8.652;2023-06-10T00:18:29;7.83;;;7.03;;
11535;SDS011;5824;49.336;8.652;2023-06-10T00:20:56;8.60;;;6.47;;
11535;SDS011;5824;49.336;8.652;2023-06-10T00:23:28;7.90;;;7.10;;
11535;SDS011;5824;49.336;8.652;2023-06-10T00:25:55;10.43;;;7.10;;
11535;SDS011;5824;49.336;8.652;2023-06-10T00:28:24;8.07;;;7.00;;
11535;SDS011;5824;49.336;8.652;2023-06-10T00:30:50;12.03;;;6.90;;
11535;SDS011;5824;49.336;8.652;2023-06-10T00:33:16;16.17;;;6.73;;
11535;SDS011;5824;49.336;8.652;2023-06-10T00:35:42;9.00;;;6.80;;
11535;SDS011;5824;49.336;8.652;2023-06-10T00:38:07;7.80;;;7.00;;
11535;SDS011;5824;49.336;8.652;2023-06-10T00:40:33;7.63;;;6.30;;
11535;SDS011;5824;49.336;8.652;2023-06-10T00:43:04;8.00;;;6.53;;
11535;SDS011;5824;49.336;8.652;2023-06-10T00:45:29;7.90;;;6.33;;
11535;SDS011;5824;49.336;8.652;2023-06-10T00:47:56;9.07;;;7.03;;
11535;SDS011;5824;49.336;8.652;2023-06-10T00:50:22;7.30;;;6.40;;
11535;SDS011;5824;49.336;8.652;2023-06-10T00:52:48;9.00;;;6.37;;
11535;SDS011;5824;49.336;8.652;2023-06-10T00:55:14;7.60;;;6.80;;
11535;SDS011;5824;49.336;8.652;2023-06-10T00:57:42;9.00;;;7.13;;
11535;SDS011;5824;49.336;8.652;2023-06-10T01:00:09;7.93;;;6.77;;
11535;SDS011;5824;49.336;8.652;2023-06-10T01:02:36;9.50;;;6.63;;
11535;SDS011;5824;49.336;8.652;2023-06-10T01:05:01;8.00;;;6.57;;
11535;SDS011;5824;49.336;8.652;2023-06-10T01:07:30;9.80;;;6.80;;
11535;SDS011;5824;49.336;8.652;2023-06-10T01:10:26;7.60;;;6.80;;
11535;SDS011;5824;49.336;8.652;2023-06-10T01:15:24;7.63;;;6.60;;
11535;SDS011;5824;49.336;8.652;2023-06-10T01:18:00;7.53;;;6.73;;
11535;SDS011;5824;49.336;8.652;2023-06-10T01:20:33;9.20;;;6.70;;
11535;SDS011;5824;49.336;8.652;2023-06-10T01:23:01;7.77;;;6.97;;
11535;SDS011;5824;49.336;8.652;2023-06-10T01:25:28;9.50;;;7.03;;
11535;SDS011;5824;49.336;8.652;2023-06-10T01:28:19;9.97;;;7.10;;
11535;SDS011;5824;49.336;8.652;2023-06-10T01:33:51;9.33;;;6.33;;
11535;SDS011;5824;49.336;8.652;2023-06-10T01:36:18;8.30;;;6.60;;
11535;SDS011;5824;49.336;8.652;2023-06-10T01:38:46;7.90;;;6.20;;
11535;SDS011;5824;49.336;8.652;2023-06-10T01:41:13;10.10;;;7.57;;
11535;SDS011;5824;49.336;8.652;2023-06-10T01:43:42;8.27;;;6.50;;
11535;SDS011;5824;49.336;8.652;2023-06-10T01:46:08;7.53;;;6.70;;
11535;SDS011;5824;49.336;8.652;2023-06-10T01:48:34;7.40;;;6.57;;
11535;SDS011;5824;49.336;8.652;2023-06-10T01:51:02;8.20;;;6.83;;
11535;SDS011;5824;49.336;8.652;2023-06-10T01:53:28;7.40;;;6.43;;
11535;SDS011;5824;49.336;8.652;2023-06-10T01:55:53;7.87;;;6.80;;
11535;SDS011;5824;49.336;8.652;2023-06-10T01:58:19;8.10;;;6.97;;
11535;SDS011;5824;49.336;8.652;2023-06-10T02:00:44;7.70;;;6.60;;
11535;SDS011;5824;49.336;8.652;2023-06-10T02:03:10;10.60;;;7.57;;
11535;SDS011;5824;49.336;8.652;2023-06-10T02:05:35;9.87;;;7.27;;
11535;SDS011;5824;49.336;8.652;2023-06-10T02:08:01;10.53;;;6.80;;
11535;SDS011;5824;49.336;8.652;2023-06-10T02:10:27;10.80;;;7.47;;
11535;SDS011;5824;49.336;8.652;2023-06-10T02:12:52;9.43;;;7.00;;
11535;SDS011;5824;49.336;8.652;2023-06-10T02:15:18;9.97;;;7.10;;
11535;SDS011;5824;49.336;8.652;2023-06-10T02:17:43;10.40;;;7.17;;
11535;SDS011;5824;49.336;8.652;2023-06-10T02:20:13;8.90;;;7.33;;
11535;SDS011;5824;49.336;8.652;2023-06-10T02:22:39;10.30;;;7.50;;
11535;SDS011;5824;49.336;8.652;2023-06-10T02:25:05;9.53;;;7.83;;
11535;SDS011;5824;49.336;8.652;2023-06-10T02:27:31;8.33;;;7.20;;
11535;SDS011;5824;49.336;8.652;2023-06-10T02:29:57;8.57;;;7.10;;
11535;SDS011;5824;49.336;8.652;2023-06-10T02:32:22;8.87;;;7.87;;
11535;SDS011;5824;49.336;8.652;2023-06-10T02:34:48;11.87;;;7.10;;
11535;SDS011;5824;49.336;8.652;2023-06-10T02:37:17;9.70;;;7.83;;
11535;SDS011;5824;49.336;8.652;2023-06-10T02:39:43;10.83;;;7.10;;
11535;SDS011;5824;49.336;8.652;2023-06-10T02:42:08;9.87;;;7.93;;
11535;SDS011;5824;49.336;8.652;2023-06-10T02:44:35;8.90;;;7.47;;
11535;SDS011;5824;49.336;8.652;2023-06-10T02:47:01;9.40;;;7.47;;
11535;SDS011;5824;49.336;8.652;2023-06-10T02:49:26;9.07;;;7.50;;
11535;SDS011;5824;49.336;8.652;2023-06-10T02:51:55;9.97;;;7.90;;
11535;SDS011;5824;49.336;8.652;2023-06-10T02:54:21;8.27;;;7.37;;
11535;SDS011;5824;49.336;8.652;2023-06-10T02:56:49;8.47;;;7.27;;
11535;SDS011;5824;49.336;8.652;2023-06-10T02:59:16;10.40;;;8.03;;
11535;SDS011;5824;49.336;8.652;2023-06-10T03:01:42;9.00;;;8.00;;
11535;SDS011;5824;49.336;8.652;2023-06-10T03:04:07;10.80;;;8.10;;
11535;SDS011;5824;49.336;8.652;2023-06-10T03:06:33;14.23;;;8.10;;
11535;SDS011;5824;49.336;8.652;2023-06-10T03:09:00;9.50;;;8.33;;
11535;SDS011;5824;49.336;8.652;2023-06-10T03:11:25;11.43;;;8.40;;
11535;SDS011;5824;49.336;8.652;2023-06-10T03:13:51;9.60;;;8.57;;
11535;SDS011;5824;49.336;8.652;2023-06-10T03:16:18;9.13;;;8.13;;
11535;SDS011;5824;49.336;8.652;2023-06-10T03:18:44;9.80;;;8.50;;
11535;SDS011;5824;49.336;8.652;2023-06-10T03:21:09;10.97;;;8.53;;
11535;SDS011;5824;49.336;8.652;2023-06-10T03:23:35;12.80;;;9.00;;
11535;SDS011;5824;49.336;8.652;2023-06-10T03:26:00;12.73;;;9.20;;
11535;SDS011;5824;49.336;8.652;2023-06-10T03:28:26;11.43;;;8.53;;
11535;SDS011;5824;49.336;8.652;2023-06-10T03:30:52;15.60;;;8.63;;
11535;SDS011;5824;49.336;8.652;2023-06-10T03:33:17;10.47;;;8.50;;
11535;SDS011;5824;49.336;8.652;2023-06-10T03:35:43;9.93;;;8.70;;
11535;SDS011;5824;49.336;8.652;2023-06-10T03:38:08;13.27;;;9.73;;
11535;SDS011;5824;49.336;8.652;2023-06-10T03:40:34;9.97;;;8.60;;
11535;SDS011;5824;49.336;8.652;2023-06-10T03:43:00;14.10;;;9.50;;
11535;SDS011;5824;49.336;8.652;2023-06-10T03:45:25;13.17;;;9.97;;
11535;SDS011;5824;49.336;8.652;2023-06-10T03:47:53;11.30;;;9.20;;
11535;SDS011;5824;49.336;8.652;2023-06-10T03:50:18;12.80;;;10.13;;
11535;SDS011;5824;49.336;8.652;2023-06-10T03:52:44;11.03;;;8.87;;
11535;SDS011;5824;49.336;8.652;2023-06-10T03:55:10;9.90;;;8.90;;
11535;SDS011;5824;49.336;8.652;2023-06-10T03:57:38;11.10;;;9.20;;
11535;SDS011;5824;49.336;8.652;2023-06-10T04:00:04;13.30;;;10.30;;
11535;SDS011;5824;49.336;8.652;2023-06-10T04:02:37;10.43;;;9.33;;
11535;SDS011;5824;49.336;8.652;2023-06-10T04:05:06;10.13;;;8.50;;
11535;SDS011;5824;49.336;8.652;2023-06-10T04:07:32;12.77;;;9.80;;
11535;SDS011;5824;49.336;8.652;2023-06-10T04:09:59;14.00;;;10.10;;
11535;SDS011;5824;49.336;8.652;2023-06-10T04:12:24;11.00;;;9.80;;
11535;SDS011;5824;49.336;8.652;2023-06-10T04:14:50;13.33;;;10.47;;
11535;SDS011;5824;49.336;8.652;2023-06-10T04:17:17;12.20;;;10.13;;
11535;SDS011;5824;49.336;8.652;2023-06-10T04:19:42;10.70;;;9.70;;
11535;SDS011;5824;49.336;8.652;2023-06-10T04:22:08;11.17;;;9.90;;
11535;SDS011;5824;49.336;8.652;2023-06-10T04:24:33;14.53;;;10.13;;
11535;SDS011;5824;49.336;8.652;2023-06-10T04:26:59;10.80;;;9.70;;
11535;SDS011;5824;49.336;8.652;2023-06-10T04:29:25;11.10;;;10.00;;
11535;SDS011;5824;49.336;8.652;2023-06-10T04:31:51;17.47;;;10.30;;
11535;SDS011;5824;49.336;8.652;2023-06-10T04:34:16;10.83;;;9.73;;
11535;SDS011;5824;49.336;8.652;2023-06-10T04:36:42;12.40;;;9.70;;
11535;SDS011;5824;49.336;8.652;2023-06-10T04:39:07;12.30;;;9.77;;
11535;SDS011;5824;49.336;8.652;2023-06-10T04:41:33;13.13;;;10.17;;
11535;SDS011;5824;49.336;8.652;2023-06-10T04:43:58;19.53;;;10.23;;
11535;SDS011;5824;49.336;8.652;2023-06-10T04:46:24;10.73;;;9.63;;
11535;SDS011;5824;49.336;8.652;2023-06-10T04:48:49;11.80;;;10.60;;
11535;SDS011;5824;49.336;8.652;2023-06-10T04:51:15;14.30;;;10.40;;
11535;SDS011;5824;49.336;8.652;2023-06-10T04:53:41;12.77;;;9.83;;
11535;SDS011;5824;49.336;8.652;2023-06-10T04:56:07;12.77;;;10.60;;
11535;SDS011;5824;49.336;8.652;2023-06-10T04:58:33;11.37;;;9.50;;
11535;SDS011;5824;49.336;8.652;2023-06-10T05:00:58;14.97;;;10.73;;
11535;SDS011;5824;49.336;8.652;2023-06-10T05:03:24;12.23;;;9.90;;
11535;SDS011;5824;49.336;8.652;2023-06-10T05:05:50;10.60;;;9.50;;
11535;SDS011;5824;49.336;8.652;2023-06-10T05:08:16;11.60;;;9.77;;
11535;SDS011;5824;49.336;8.652;2023-06-10T05:10:41;12.60;;;10.70;;
11535;SDS011;5824;49.336;8.652;2023-06-10T05:13:07;11.57;;;10.20;;
11535;SDS011;5824;49.336;8.652;2023-06-10T05:15:32;12.80;;;10.70;;
11535;SDS011;5824;49.336;8.652;2023-06-10T05:17:58;11.40;;;10.20;;
11535;SDS011;5824;49.336;8.652;2023-06-10T05:20:24;12.40;;;10.67;;
11535;SDS011;5824;49.336;8.652;2023-06-10T05:22:50;11.63;;;9.80;;
11535;SDS011;5824;49.336;8.652;2023-06-10T05:25:16;12.57;;;9.73;;
11535;SDS011;5824;49.336;8.652;2023-06-10T05:27:41;12.00;;;10.33;;
11535;SDS011;5824;49.336;8.652;2023-06-10T05:30:08;14.17;;;10.03;;
11535;SDS011;5824;49.336;8.652;2023-06-10T05:32:35;16.17;;;10.03;;
11535;SDS011;5824;49.336;8.652;2023-06-10T05:35:01;12.67;;;10.70;;
11535;SDS011;5824;49.336;8.652;2023-06-10T05:37:28;13.90;;;10.17;;
11535;SDS011;5824;49.336;8.652;2023-06-10T05:39:54;10.87;;;9.67;;
11535;SDS011;5824;49.336;8.652;2023-06-10T05:42:19;10.63;;;9.53;;
11535;SDS011;5824;49.336;8.652;2023-06-10T05:44:45;11.97;;;10.33;;
11535;SDS011;5824;49.336;8.652;2023-06-10T05:47:10;12.73;;;9.93;;
11535;SDS011;5824;49.336;8.652;2023-06-10T05:49:36;10.67;;;9.57;;
11535;SDS011;5824;49.336;8.652;2023-06-10T05:52:01;10.93;;;9.83;;
11535;SDS011;5824;49.336;8.652;2023-06-10T05:54:27;10.33;;;9.23;;
11535;SDS011;5824;49.336;8.652;2023-06-10T05:56:52;11.60;;;8.20;;
11535;SDS011;5824;49.336;8.652;2023-06-10T05:59:18;9.60;;;8.60;;
11535;SDS011;5824;49.336;8.652;2023-06-10T06:01:44;9.57;;;8.37;;
11535;SDS011;5824;49.336;8.652;2023-06-10T06:04:09;11.30;;;9.13;;
11535;SDS011;5824;49.336;8.652;2023-06-10T06:06:35;9.90;;;8.60;;
11535;SDS011;5824;49.336;8.652;2023-06-10T06:09:03;13.53;;;8.97;;
11535;SDS011;5824;49.336;8.652;2023-06-10T06:11:29;9.43;;;8.50;;
11535;SDS011;5824;49.336;8.652;2023-06-10T06:13:54;13.60;;;8.97;;
11535;SDS011;5824;49.336;8.652;2023-06-10T06:16:20;9.33;;;8.37;;
11535;SDS011;5824;49.336;8.652;2023-06-10T06:18:46;11.77;;;8.40;;
11535;SDS011;5824;49.336;8.652;2023-06-10T06:21:12;9.87;;;8.80;;
11535;SDS011;5824;49.336;8.652;2023-06-10T06:23:37;10.00;;;8.07;;
11535;SDS011;5824;49.336;8.652;2023-06-10T06:26:03;9.57;;;8.27;;
11535;SDS011;5824;49.336;8.652;2023-06-10T06:28:28;8.93;;;8.00;;
11535;SDS011;5824;49.336;8.652;2023-06-10T06:30:57;9.33;;;8.00;;
11535;SDS011;5824;49.336;8.652;2023-06-10T06:33:22;9.60;;;7.90;;
11535;SDS011;5824;49.336;8.652;2023-06-10T06:35:48;10.13;;;8.60;;
11535;SDS011;5824;49.336;8.652;2023-06-10T06:38:14;9.23;;;8.23;;
11535;SDS011;5824;49.336;8.652;2023-06-10T06:40:39;9.50;;;7.97;;
11535;SDS011;5824;49.336;8.652;2023-06-10T06:43:05;9.40;;;8.30;;
11535;SDS011;5824;49.336;8.652;2023-06-10T06:45:30;10.20;;;8.20;;
11535;SDS011;5824;49.336;8.652;2023-06-10T06:47:56;8.70;;;7.60;;
11535;SDS011;5824;49.336;8.652;2023-06-10T06:50:21;9.33;;;7.90;;
11535;SDS011;5824;49.336;8.652;2023-06-10T06:52:47;8.53;;;7.63;;
11535;SDS011;5824;49.336;8.652;2023-06-10T06:55:12;8.67;;;7.77;;
11535;SDS011;5824;49.336;8.652;2023-06-10T06:57:38;8.80;;;7.07;;
11535;SDS011;5824;49.336;8.652;2023-06-10T07:00:04;9.00;;;7.87;;
11535;SDS011;5824;49.336;8.652;2023-06-10T07:02:30;9.67;;;8.33;;
11535;SDS011;5824;49.336;8.652;2023-06-10T07:04:58;8.60;;;7.70;;
11535;SDS011;5824;49.336;8.652;2023-06-10T07:07:23;9.30;;;8.03;;
11535;SDS011;5824;49.336;8.652;2023-06-10T07:09:49;9.27;;;7.70;;
11535;SDS011;5824;49.336;8.652;2023-06-10T07:12:15;10.03;;;7.70;;
11535;SDS011;5824;49.336;8.652;2023-06-10T07:14:40;11.33;;;7.70;;
11535;SDS011;5824;49.336;8.652;2023-06-10T07:17:06;9.53;;;7.83;;
11535;SDS011;5824;49.336;8.652;2023-06-10T07:19:32;7.97;;;7.17;;
11535;SDS011;5824;49.336;8.652;2023-06-10T07:21:57;11.30;;;7.63;;
11535;SDS011;5824;49.336;8.652;2023-06-10T07:24:23;7.90;;;7.10;;
11535;SDS011;5824;49.336;8.652;2023-06-10T07:26:48;8.30;;;7.00;;
11535;SDS011;5824;49.336;8.652;2023-06-10T07:29:14;7.73;;;6.90;;
11535;SDS011;5824;49.336;8.652;2023-06-10T07:31:40;7.73;;;6.93;;
11535;SDS011;5824;49.336;8.652;2023-06-10T07:34:06;7.63;;;6.50;;
11535;SDS011;5824;49.336;8.652;2023-06-10T07:36:32;7.10;;;6.37;;
11535;SDS011;5824;49.336;8.652;2023-06-10T07:38:57;7.67;;;6.87;;
11535;SDS011;5824;49.336;8.652;2023-06-10T07:41:23;8.23;;;6.60;;
11535;SDS011;5824;49.336;8.652;2023-06-10T07:43:50;7.38;;;6.57;;
11535;SDS011;5824;49.336;8.652;2023-06-10T07:46:19;7.37;;;5.90;;
11535;SDS011;5824;49.336;8.652;2023-06-10T07:48:46;9.53;;;6.27;;
11535;SDS011;5824;49.336;8.652;2023-06-10T07:51:12;9.10;;;6.80;;
11535;SDS011;5824;49.336;8.652;2023-06-10T07:53:37;10.20;;;6.53;;
11535;SDS011;5824;49.336;8.652;2023-06-10T07:56:03;6.80;;;6.00;;
11535;SDS011;5824;49.336;8.652;2023-06-10T07:58:28;7.30;;;6.60;;
11535;SDS011;5824;49.336;8.652;2023-06-10T08:00:54;8.20;;;7.00;;
11535;SDS011;5824;49.336;8.652;2023-06-10T08:03:19;8.20;;;7.07;;
11535;SDS011;5824;49.336;8.652;2023-06-10T08:05:45;6.97;;;6.27;;
11535;SDS011;5824;49.336;8.652;2023-06-10T08:08:10;7.47;;;6.40;;
11535;SDS011;5824;49.336;8.652;2023-06-10T08:10:38;7.30;;;6.60;;
11535;SDS011;5824;49.336;8.652;2023-06-10T08:13:03;8.07;;;6.20;;
11535;SDS011;5824;49.336;8.652;2023-06-10T08:15:29;10.90;;;7.40;;
11535;SDS011;5824;49.336;8.652;2023-06-10T08:17:54;7.67;;;6.83;;
11535;SDS011;5824;49.336;8.652;2023-06-10T08:20:21;8.20;;;7.40;;
11535;SDS011;5824;49.336;8.652;2023-06-10T08:22:47;8.13;;;7.27;;
11535;SDS011;5824;49.336;8.652;2023-06-10T08:25:12;13.50;;;8.00;;
11535;SDS011;5824;49.336;8.652;2023-06-10T08:27:38;8.70;;;7.80;;
11535;SDS011;5824;49.336;8.652;2023-06-10T08:30:04;10.97;;;8.50;;
11535;SDS011;5824;49.336;8.652;2023-06-10T08:32:30;8.93;;;7.18;;
11535;SDS011;5824;49.336;8.652;2023-06-10T08:34:55;9.93;;;6.80;;
11535;SDS011;5824;49.336;8.652;2023-06-10T08:37:21;9.55;;;7.28;;
11535;SDS011;5824;49.336;8.652;2023-06-10T08:39:47;7.93;;;7.13;;
11535;SDS011;5824;49.336;8.652;2023-06-10T08:44:46;8.55;;;6.80;;
11535;SDS011;5824;49.336;8.652;2023-06-10T08:47:17;8.00;;;7.20;;
11535;SDS011;5824;49.336;8.652;2023-06-10T08:49:45;9.93;;;7.97;;
11535;SDS011;5824;49.336;8.652;2023-06-10T08:52:15;8.43;;;7.53;;
11535;SDS011;5824;49.336;8.652;2023-06-10T08:54:43;7.85;;;7.00;;
11535;SDS011;5824;49.336;8.652;2023-06-10T08:57:14;9.18;;;7.72;;
11535;SDS011;5824;49.336;8.652;2023-06-10T08:59:42;7.68;;;6.78;;
11535;SDS011;5824;49.336;8.652;2023-06-10T09:02:08;9.00;;;7.32;;
11535;SDS011;5824;49.336;8.652;2023-06-10T09:04:34;9.38;;;7.15;;
11535;SDS011;5824;49.336;8.652;2023-06-10T09:07:01;8.98;;;7.82;;
11535;SDS011;5824;49.336;8.652;2023-06-10T09:09:27;7.53;;;6.82;;
11535;SDS011;5824;49.336;8.652;2023-06-10T09:11:55;8.13;;;7.30;;
11535;SDS011;5824;49.336;8.652;2023-06-10T09:14:21;10.18;;;7.30;;
11535;SDS011;5824;49.336;8.652;2023-06-10T09:16:46;8.35;;;7.10;;
11535;SDS011;5824;49.336;8.652;2023-06-10T09:19:13;8.38;;;6.85;;
11535;SDS011;5824;49.336;8.652;2023-06-10T09:21:41;7.78;;;7.07;;
11535;SDS011;5824;49.336;8.652;2023-06-10T09:24:06;7.18;;;6.47;;
11535;SDS011;5824;49.336;8.652;2023-06-10T09:26:32;7.53;;;6.55;;
11535;SDS011;5824;49.336;8.652;2023-06-10T09:29:07;7.63;;;6.93;;
11535;SDS011;5824;49.336;8.652;2023-06-10T09:31:36;7.82;;;6.63;;
11535;SDS011;5824;49.336;8.652;2023-06-10T09:36:37;7.93;;;6.70;;
11535;SDS011;5824;49.336;8.652;2023-06-10T09:39:03;7.85;;;6.40;;
11535;SDS011;5824;49.336;8.652;2023-06-10T09:41:33;7.20;;;6.07;;
11535;SDS011;5824;49.336;8.652;2023-06-10T09:44:05;7.13;;;6.18;;
11535;SDS011;5824;49.336;8.652;2023-06-10T09:46:41;6.95;;;6.25;;
11535;SDS011;5824;49.336;8.652;2023-06-10T09:49:07;9.48;;;6.35;;
11535;SDS011;5824;49.336;8.652;2023-06-10T09:51:33;7.15;;;6.03;;
11535;SDS011;5824;49.336;8.652;2023-06-10T09:53:59;7.10;;;6.07;;
11535;SDS011;5824;49.336;8.652;2023-06-10T09:56:37;7.63;;;6.47;;
11535;SDS011;5824;49.336;8.652;2023-06-10T09:59:03;8.07;;;6.80;;
11535;SDS011;5824;49.336;8.652;2023-06-10T10:01:31;7.07;;;6.38;;
11535;SDS011;5824;49.336;8.652;2023-06-10T10:03:58;7.30;;;6.60;;
11535;SDS011;5824;49.336;8.652;2023-06-10T10:06:24;7.63;;;6.82;;
11535;SDS011;5824;49.336;8.652;2023-06-10T10:08:50;7.45;;;6.55;;
11535;SDS011;5824;49.336;8.652;2023-06-10T10:11:17;9.32;;;6.75;;
11535;SDS011;5824;49.336;8.652;2023-06-10T10:13:47;7.72;;;6.72;;
11535;SDS011;5824;49.336;8.652;2023-06-10T10:16:35;8.30;;;6.50;;
11535;SDS011;5824;49.336;8.652;2023-06-10T10:19:12;10.45;;;6.75;;
11535;SDS011;5824;49.336;8.652;2023-06-10T10:21:49;9.80;;;7.20;;
11535;SDS011;5824;49.336;8.652;2023-06-10T10:24:21;7.32;;;6.13;;
11535;SDS011;5824;49.336;8.652;2023-06-10T10:26:52;7.00;;;6.30;;
11535;SDS011;5824;49.336;8.652;2023-06-10T10:29:57;8.68;;;6.65;;
11535;SDS011;5824;49.336;8.652;2023-06-10T10:32:17;8.10;;;6.90;;
11535;SDS011;5824;49.336;8.652;2023-06-10T10:34:52;8.07;;;6.38;;
11535;SDS011;5824;49.336;8.652;2023-06-10T10:37:24;7.43;;;6.63;;
11535;SDS011;5824;49.336;8.652;2023-06-10T10:39:51;9.70;;;6.70;;
11535;SDS011;5824;49.336;8.652;2023-06-10T10:42:18;7.05;;;6.35;;
11535;SDS011;5824;49.336;8.652;2023-06-10T10:44:44;8.85;;;6.10;;
11535;SDS011;5824;49.336;8.652;2023-06-10T10:47:10;6.88;;;6.18;;
11535;SDS011;5824;49.336;8.652;2023-06-10T10:49:37;7.03;;;5.70;;
11535;SDS011;5824;49.336;8.652;2023-06-10T10:52:04;12.63;;;6.40;;
11535;SDS011;5824;49.336;8.652;2023-06-10T10:54:33;6.07;;;5.47;;
11535;SDS011;5824;49.336;8.652;2023-06-10T11:05:15;6.65;;;5.95;;
11535;SDS011;5824;49.336;8.652;2023-06-10T11:07:51;7.22;;;6.47;;
11535;SDS011;5824;49.336;8.652;2023-06-10T11:13:00;6.82;;;6.13;;
11535;SDS011;5824;49.336;8.652;2023-06-10T11:15:31;10.00;;;5.82;;
11535;SDS011;5824;49.336;8.652;2023-06-10T11:18:09;6.70;;;6.00;;
11535;SDS011;5824;49.336;8.652;2023-06-10T11:28:41;7.65;;;6.20;;
11535;SDS011;5824;49.336;8.652;2023-06-10T11:31:08;6.18;;;5.47;;
11535;SDS011;5824;49.336;8.652;2023-06-10T11:33:44;6.15;;;5.55;;
11535;SDS011;5824;49.336;8.652;2023-06-10T11:36:41;7.88;;;5.75;;
11535;SDS011;5824;49.336;8.652;2023-06-10T11:39:09;8.05;;;5.97;;
11535;SDS011;5824;49.336;8.652;2023-06-10T11:41:35;7.55;;;5.63;;
11535;SDS011;5824;49.336;8.652;2023-06-10T11:46:31;8.50;;;5.65;;
11535;SDS011;5824;49.336;8.652;2023-06-10T11:48:58;6.40;;;5.78;;
11535;SDS011;5824;49.336;8.652;2023-06-10T11:51:25;5.63;;;4.97;;
11535;SDS011;5824;49.336;8.652;2023-06-10T11:53:52;5.30;;;4.80;;
11535;SDS011;5824;49.336;8.652;2023-06-10T11:56:22;5.60;;;4.53;;
11535;SDS011;5824;49.336;8.652;2023-06-10T11:58:55;6.22;;;4.90;;
11535;SDS011;5824;49.336;8.652;2023-06-10T12:01:29;5.80;;;5.25;;
11535;SDS011;5824;49.336;8.652;2023-06-10T12:04:08;5.95;;;5.25;;
11535;SDS011;5824;49.336;8.652;2023-06-10T12:09:13;7.20;;;4.95;;
11535;SDS011;5824;49.336;8.652;2023-06-10T12:11:52;5.70;;;5.07;;
11535;SDS011;5824;49.336;8.652;2023-06-10T12:17:17;5.22;;;3.92;;
11535;SDS011;5824;49.336;8.652;2023-06-10T12:19:42;4.93;;;4.32;;
11535;SDS011;5824;49.336;8.652;2023-06-10T12:22:08;5.53;;;3.75;;
11535;SDS011;5824;49.336;8.652;2023-06-10T12:24:34;4.43;;;4.00;;
11535;SDS011;5824;49.336;8.652;2023-06-10T12:27:12;7.57;;;4.43;;
11535;SDS011;5824;49.336;8.652;2023-06-10T12:29:38;4.95;;;4.00;;
11535;SDS011;5824;49.336;8.652;2023-06-10T12:32:03;4.90;;;3.78;;
11535;SDS011;5824;49.336;8.652;2023-06-10T12:34:32;7.20;;;4.50;;
11535;SDS011;5824;49.336;8.652;2023-06-10T12:37:03;5.82;;;3.90;;
11535;SDS011;5824;49.336;8.652;2023-06-10T12:39:31;4.40;;;3.90;;
11535;SDS011;5824;49.336;8.652;2023-06-10T12:41:57;4.65;;;3.65;;
11535;SDS011;5824;49.336;8.652;2023-06-10T12:44:30;4.90;;;4.40;;
11535;SDS011;5824;49.336;8.652;2023-06-10T12:46:56;5.10;;;4.50;;
11535;SDS011;5824;49.336;8.652;2023-06-10T12:49:22;5.63;;;4.60;;
11535;SDS011;5824;49.336;8.652;2023-06-10T12:51:48;5.07;;;4.43;;
11535;SDS011;5824;49.336;8.652;2023-06-10T12:54:13;5.28;;;4.78;;
11535;SDS011;5824;49.336;8.652;2023-06-10T12:56:39;6.20;;;5.60;;
11535;SDS011;5824;49.336;8.652;2023-06-10T12:59:04;8.00;;;4.68;;
11535;SDS011;5824;49.336;8.652;2023-06-10T13:01:30;5.32;;;4.57;;
11535;SDS011;5824;49.336;8.652;2023-06-10T13:03:56;5.75;;;4.55;;
11535;SDS011;5824;49.336;8.652;2023-06-10T13:06:22;4.82;;;4.25;;
11535;SDS011;5824;49.336;8.652;2023-06-10T13:08:48;7.93;;;4.63;;
11535;SDS011;5824;49.336;8.652;2023-06-10T13:11:13;6.68;;;4.35;;
11535;SDS011;5824;49.336;8.652;2023-06-10T13:13:39;5.20;;;4.18;;
11535;SDS011;5824;49.336;8.652;2023-06-10T13:16:05;5.75;;;4.68;;
11535;SDS011;5824;49.336;8.652;2023-06-10T13:18:32;4.80;;;4.13;;
11535;SDS011;5824;49.336;8.652;2023-06-10T13:21:02;6.40;;;4.00;;
11535;SDS011;5824;49.336;8.652;2023-06-10T13:23:28;5.63;;;4.00;;
11535;SDS011;5824;49.336;8.652;2023-06-10T13:25:54;4.25;;;3.80;;
11535;SDS011;5824;49.336;8.652;2023-06-10T13:28:20;6.55;;;4.20;;
11535;SDS011;5824;49.336;8.652;2023-06-10T13:30:46;4.82;;;4.30;;
11535;SDS011;5824;49.336;8.652;2023-06-10T13:33:11;4.72;;;4.32;;
11535;SDS011;5824;49.336;8.652;2023-06-10T13:35:37;4.75;;;3.92;;
11535;SDS011;5824;49.336;8.652;2023-06-10T13:38:03;5.57;;;4.10;;
11535;SDS011;5824;49.336;8.652;2023-06-10T13:40:28;4.78;;;4.25;;
11535;SDS011;5824;49.336;8.652;2023-06-10T13:42:54;4.68;;;3.88;;
11535;SDS011;5824;49.336;8.652;2023-06-10T13:45:20;4.30;;;3.90;;
11535;SDS011;5824;49.336;8.652;2023-06-10T13:47:45;6.28;;;4.00;;
11535;SDS011;5824;49.336;8.652;2023-06-10T13:50:11;4.85;;;4.00;;
11535;SDS011;5824;49.336;8.652;2023-06-10T13:52:38;5.95;;;3.92;;
11535;SDS011;5824;49.336;8.652;2023-06-10T13:55:03;6.05;;;4.00;;
11535;SDS011;5824;49.336;8.652;2023-06-10T13:57:29;5.13;;;4.07;;
11535;SDS011;5824;49.336;8.652;2023-06-10T13:59:55;5.75;;;4.00;;
11535;SDS011;5824;49.336;8.652;2023-06-10T14:02:21;4.32;;;3.92;;
11535;SDS011;5824;49.336;8.652;2023-06-10T14:04:47;4.57;;;3.70;;
11535;SDS011;5824;49.336;8.652;2023-06-10T14:07:12;4.72;;;3.90;;
11535;SDS011;5824;49.336;8.652;2023-06-10T14:09:38;4.20;;;3.50;;
11535;SDS011;5824;49.336;8.652;2023-06-10T14:12:04;6.53;;;3.90;;
11535;SDS011;5824;49.336;8.652;2023-06-10T14:14:30;7.70;;;3.72;;
11535;SDS011;5824;49.336;8.652;2023-06-10T14:16:56;6.45;;;4.30;;
11535;SDS011;5824;49.336;8.652;2023-06-10T14:19:21;4.82;;;4.13;;
11535;SDS011;5824;49.336;8.652;2023-06-10T14:21:47;7.03;;;4.60;;
11535;SDS011;5824;49.336;8.652;2023-06-10T14:24:14;4.57;;;3.50;;
11535;SDS011;5824;49.336;8.652;2023-06-10T14:26:40;5.03;;;4.45;;
11535;SDS011;5824;49.336;8.652;2023-06-10T14:29:05;5.85;;;4.88;;
11535;SDS011;5824;49.336;8.652;2023-06-10T14:31:32;5.25;;;4.75;;
11535;SDS011;5824;49.336;8.652;2023-06-10T14:33:57;4.70;;;4.30;;
11535;SDS011;5824;49.336;8.652;2023-06-10T14:36:23;6.88;;;4.55;;
11535;SDS011;5824;49.336;8.652;2023-06-10T14:38:48;5.75;;;5.15;;
11535;SDS011;5824;49.336;8.652;2023-06-10T14:41:15;5.75;;;4.50;;
11535;SDS011;5824;49.336;8.652;2023-06-10T14:43:40;6.45;;;4.97;;
11535;SDS011;5824;49.336;8.652;2023-06-10T14:46:06;5.90;;;4.80;;
11535;SDS011;5824;49.336;8.652;2023-06-10T14:48:31;6.32;;;5.10;;
11535;SDS011;5824;49.336;8.652;2023-06-10T14:50:57;7.72;;;5.30;;
11535;SDS011;5824;49.336;8.652;2023-06-10T14:53:22;5.72;;;5.00;;
11535;SDS011;5824;49.336;8.652;2023-06-10T14:55:48;5.18;;;4.68;;
11535;SDS011;5824;49.336;8.652;2023-06-10T14:58:13;5.50;;;4.82;;
11535;SDS011;5824;49.336;8.652;2023-06-10T15:00:39;6.72;;;5.05;;
11535;SDS011;5824;49.336;8.652;2023-06-10T15:03:04;7.30;;;6.00;;
11535;SDS011;5824;49.336;8.652;2023-06-10T15:05:30;7.82;;;5.40;;
11535;SDS011;5824;49.336;8.652;2023-06-10T15:07:55;6.28;;;5.25;;
11535;SDS011;5824;49.336;8.652;2023-06-10T15:10:21;5.93;;;5.28;;
11535;SDS011;5824;49.336;8.652;2023-06-10T15:12:47;6.03;;;5.35;;
11535;SDS011;5824;49.336;8.652;2023-06-10T15:15:13;5.63;;;5.03;;
11535;SDS011;5824;49.336;8.652;2023-06-10T15:17:38;6.18;;;5.35;;
11535;SDS011;5824;49.336;8.652;2023-06-10T15:20:04;5.57;;;5.07;;
11535;SDS011;5824;49.336;8.652;2023-06-10T15:22:30;6.55;;;5.15;;
11535;SDS011;5824;49.336;8.652;2023-06-10T15:24:56;6.38;;;5.50;;
11535;SDS011;5824;49.336;8.652;2023-06-10T15:27:22;8.23;;;5.50;;
11535;SDS011;5824;49.336;8.652;2023-06-10T15:29:48;8.20;;;5.40;;
11535;SDS011;5824;49.336;8.652;2023-06-10T15:32:13;7.35;;;5.40;;
11535;SDS011;5824;49.336;8.652;2023-06-10T15:34:39;6.88;;;5.20;;